Blackall, Australia
Current Conditions -  °F | °C
As of 11:00 AM on Friday 28 Nov 2014 (Local Time) from YLRE Reporting Station
Clear Clear  
Wind Chill: 91°   Ceiling: Unl
Heat Index: 91°   Visibility: 6mi
Dew Point: 59°   Wind: 12mph
Humidity: 34%   Direction: 10°N
Pressure: 29.88"   Gusts: NA
Location:  24.42°S, 145.47°E
Report Text: YLRE 280100Z 01010KT CAVOK 33/15 Q1012
Loading
Personal Weather Stations






























Interactive Weather Map New forecast layout! Learn more

10-Day Weather Forecast

Advertisements
Track Severe Weather on mobile